Newark, West Virginia
Current Conditions -  °F | °C
As of 3:53 AM on Wednesday 28 Jan 2015 (Local Time) from KPKB Reporting Station
Overcast Overcast  
Wind Chill: 17°   Ceiling: 1600
Heat Index: 17°   Visibility: 10mi
Dew Point: 11°   Wind: 3mph
Humidity: 77%   Direction: 310°NW
Pressure: 30.28"   Gusts: NA
Location:  39.0402°N, 81.3085°W
Report Text: KPKB 280853Z AUTO 31003KT 10SM OVC016 M08/M12 A3028 RMK AO2 SLP267 T10831117 51017
Loading
Personal Weather Stations






























Interactive Weather Map New forecast layout! Learn more

10-Day Weather Forecast

Advertisements
Track Severe Weather on mobile